sensor_id;sensor_type;location;lat;lon;timestamp;P1;durP1;ratioP1;P2;durP2;ratioP2
14294;SDS011;7231;59.370;18.016;2023-07-20T00:02:25;4.43;;;1.10;;
14294;SDS011;7231;59.370;18.016;2023-07-20T00:04:54;1.52;;;0.85;;
14294;SDS011;7231;59.370;18.016;2023-07-20T00:07:22;2.15;;;0.90;;
14294;SDS011;7231;59.370;18.016;2023-07-20T00:09:51;2.20;;;0.70;;
14294;SDS011;7231;59.370;18.016;2023-07-20T00:12:20;3.97;;;1.02;;
14294;SDS011;7231;59.370;18.016;2023-07-20T00:14:48;2.17;;;0.70;;
14294;SDS011;7231;59.370;18.016;2023-07-20T00:17:20;1.40;;;0.82;;
14294;SDS011;7231;59.370;18.016;2023-07-20T00:19:48;1.05;;;0.70;;
14294;SDS011;7231;59.370;18.016;2023-07-20T00:22:17;2.67;;;1.38;;
14294;SDS011;7231;59.370;18.016;2023-07-20T00:24:45;4.07;;;1.00;;
14294;SDS011;7231;59.370;18.016;2023-07-20T00:27:13;2.55;;;1.08;;
14294;SDS011;7231;59.370;18.016;2023-07-20T00:29:41;2.75;;;1.05;;
14294;SDS011;7231;59.370;18.016;2023-07-20T00:32:09;1.77;;;1.08;;
14294;SDS011;7231;59.370;18.016;2023-07-20T00:34:37;1.95;;;0.80;;
14294;SDS011;7231;59.370;18.016;2023-07-20T00:37:05;4.30;;;1.27;;
14294;SDS011;7231;59.370;18.016;2023-07-20T00:39:35;2.15;;;0.90;;
14294;SDS011;7231;59.370;18.016;2023-07-20T00:42:03;4.32;;;0.98;;
14294;SDS011;7231;59.370;18.016;2023-07-20T00:44:32;2.03;;;0.95;;
14294;SDS011;7231;59.370;18.016;2023-07-20T00:47:01;2.00;;;0.75;;
14294;SDS011;7231;59.370;18.016;2023-07-20T00:49:29;2.75;;;1.05;;
14294;SDS011;7231;59.370;18.016;2023-07-20T00:51:58;2.85;;;0.85;;
14294;SDS011;7231;59.370;18.016;2023-07-20T00:54:27;5.72;;;1.15;;
14294;SDS011;7231;59.370;18.016;2023-07-20T00:56:56;2.20;;;1.02;;
14294;SDS011;7231;59.370;18.016;2023-07-20T00:59:26;2.10;;;0.90;;
14294;SDS011;7231;59.370;18.016;2023-07-20T01:01:54;3.42;;;1.23;;
14294;SDS011;7231;59.370;18.016;2023-07-20T01:04:22;2.75;;;1.00;;
14294;SDS011;7231;59.370;18.016;2023-07-20T01:06:53;4.40;;;0.82;;
14294;SDS011;7231;59.370;18.016;2023-07-20T01:09:28;3.88;;;1.05;;
14294;SDS011;7231;59.370;18.016;2023-07-20T01:12:05;6.15;;;1.00;;
14294;SDS011;7231;59.370;18.016;2023-07-20T01:14:35;2.85;;;1.25;;
14294;SDS011;7231;59.370;18.016;2023-07-20T01:17:04;3.53;;;1.02;;
14294;SDS011;7231;59.370;18.016;2023-07-20T01:19:32;4.43;;;1.10;;
14294;SDS011;7231;59.370;18.016;2023-07-20T01:22:02;3.38;;;1.20;;
14294;SDS011;7231;59.370;18.016;2023-07-20T01:24:51;2.22;;;1.08;;
14294;SDS011;7231;59.370;18.016;2023-07-20T01:27:45;2.92;;;0.98;;
14294;SDS011;7231;59.370;18.016;2023-07-20T01:30:28;2.42;;;1.08;;
14294;SDS011;7231;59.370;18.016;2023-07-20T01:33:14;2.75;;;0.90;;
14294;SDS011;7231;59.370;18.016;2023-07-20T01:35:44;3.33;;;0.90;;
14294;SDS011;7231;59.370;18.016;2023-07-20T01:38:15;3.17;;;0.90;;
14294;SDS011;7231;59.370;18.016;2023-07-20T01:40:44;5.45;;;1.42;;
14294;SDS011;7231;59.370;18.016;2023-07-20T01:43:13;3.25;;;0.90;;
14294;SDS011;7231;59.370;18.016;2023-07-20T01:45:41;6.20;;;1.65;;
14294;SDS011;7231;59.370;18.016;2023-07-20T01:48:09;2.60;;;1.08;;
14294;SDS011;7231;59.370;18.016;2023-07-20T01:50:39;2.65;;;1.20;;
14294;SDS011;7231;59.370;18.016;2023-07-20T01:53:08;5.05;;;1.20;;
14294;SDS011;7231;59.370;18.016;2023-07-20T01:55:36;2.67;;;1.08;;
14294;SDS011;7231;59.370;18.016;2023-07-20T01:58:04;5.38;;;1.08;;
14294;SDS011;7231;59.370;18.016;2023-07-20T02:00:32;2.38;;;1.08;;
14294;SDS011;7231;59.370;18.016;2023-07-20T02:03:00;3.90;;;1.25;;
14294;SDS011;7231;59.370;18.016;2023-07-20T02:05:28;3.70;;;1.00;;
14294;SDS011;7231;59.370;18.016;2023-07-20T02:07:58;4.05;;;1.25;;
14294;SDS011;7231;59.370;18.016;2023-07-20T02:10:26;5.93;;;1.33;;
14294;SDS011;7231;59.370;18.016;2023-07-20T02:12:54;4.50;;;1.40;;
14294;SDS011;7231;59.370;18.016;2023-07-20T02:15:22;3.22;;;1.10;;
14294;SDS011;7231;59.370;18.016;2023-07-20T02:17:50;4.25;;;1.15;;
14294;SDS011;7231;59.370;18.016;2023-07-20T02:20:18;3.08;;;1.10;;
14294;SDS011;7231;59.370;18.016;2023-07-20T02:22:49;2.67;;;1.15;;
14294;SDS011;7231;59.370;18.016;2023-07-20T02:25:19;4.85;;;1.42;;
14294;SDS011;7231;59.370;18.016;2023-07-20T02:27:47;4.78;;;1.23;;
14294;SDS011;7231;59.370;18.016;2023-07-20T02:30:15;7.63;;;1.65;;
14294;SDS011;7231;59.370;18.016;2023-07-20T02:32:44;6.05;;;1.85;;
14294;SDS011;7231;59.370;18.016;2023-07-20T02:35:15;5.05;;;1.52;;
14294;SDS011;7231;59.370;18.016;2023-07-20T02:37:43;5.57;;;1.38;;
14294;SDS011;7231;59.370;18.016;2023-07-20T02:40:11;4.35;;;1.50;;
14294;SDS011;7231;59.370;18.016;2023-07-20T02:42:41;5.18;;;1.33;;
14294;SDS011;7231;59.370;18.016;2023-07-20T02:45:09;3.65;;;1.20;;
14294;SDS011;7231;59.370;18.016;2023-07-20T02:47:37;4.57;;;1.30;;
14294;SDS011;7231;59.370;18.016;2023-07-20T02:50:06;3.80;;;1.33;;
14294;SDS011;7231;59.370;18.016;2023-07-20T02:52:35;5.82;;;1.40;;
14294;SDS011;7231;59.370;18.016;2023-07-20T02:55:03;3.03;;;1.27;;
14294;SDS011;7231;59.370;18.016;2023-07-20T02:57:31;3.50;;;1.10;;
14294;SDS011;7231;59.370;18.016;2023-07-20T03:00:01;5.55;;;1.55;;
14294;SDS011;7231;59.370;18.016;2023-07-20T03:02:32;4.07;;;1.50;;
14294;SDS011;7231;59.370;18.016;2023-07-20T03:05:00;4.68;;;1.27;;
14294;SDS011;7231;59.370;18.016;2023-07-20T03:07:32;3.00;;;1.30;;
14294;SDS011;7231;59.370;18.016;2023-07-20T03:10:00;7.25;;;1.70;;
14294;SDS011;7231;59.370;18.016;2023-07-20T03:12:29;4.18;;;1.52;;
14294;SDS011;7231;59.370;18.016;2023-07-20T03:14:57;2.25;;;1.20;;
14294;SDS011;7231;59.370;18.016;2023-07-20T03:17:26;4.25;;;1.50;;
14294;SDS011;7231;59.370;18.016;2023-07-20T03:19:54;4.50;;;1.40;;
14294;SDS011;7231;59.370;18.016;2023-07-20T03:22:22;4.65;;;1.65;;
14294;SDS011;7231;59.370;18.016;2023-07-20T03:24:50;5.90;;;1.65;;
14294;SDS011;7231;59.370;18.016;2023-07-20T03:27:18;4.20;;;1.40;;
14294;SDS011;7231;59.370;18.016;2023-07-20T03:29:47;6.13;;;1.55;;
14294;SDS011;7231;59.370;18.016;2023-07-20T03:32:15;2.88;;;1.20;;
14294;SDS011;7231;59.370;18.016;2023-07-20T03:34:44;5.20;;;1.45;;
14294;SDS011;7231;59.370;18.016;2023-07-20T03:37:12;5.90;;;1.90;;
14294;SDS011;7231;59.370;18.016;2023-07-20T03:39:41;3.85;;;1.40;;
14294;SDS011;7231;59.370;18.016;2023-07-20T03:42:09;2.30;;;1.17;;
14294;SDS011;7231;59.370;18.016;2023-07-20T03:44:37;5.00;;;1.48;;
14294;SDS011;7231;59.370;18.016;2023-07-20T03:47:05;5.30;;;1.83;;
14294;SDS011;7231;59.370;18.016;2023-07-20T03:49:34;4.18;;;1.65;;
14294;SDS011;7231;59.370;18.016;2023-07-20T03:52:04;7.18;;;1.67;;
14294;SDS011;7231;59.370;18.016;2023-07-20T03:54:32;5.82;;;1.52;;
14294;SDS011;7231;59.370;18.016;2023-07-20T03:57:00;5.85;;;1.75;;
14294;SDS011;7231;59.370;18.016;2023-07-20T03:59:28;4.65;;;1.67;;
14294;SDS011;7231;59.370;18.016;2023-07-20T04:01:56;2.88;;;1.15;;
14294;SDS011;7231;59.370;18.016;2023-07-20T04:04:24;5.05;;;1.40;;
14294;SDS011;7231;59.370;18.016;2023-07-20T04:06:52;5.30;;;1.33;;
14294;SDS011;7231;59.370;18.016;2023-07-20T04:09:21;4.57;;;1.30;;
14294;SDS011;7231;59.370;18.016;2023-07-20T04:11:49;9.20;;;1.98;;
14294;SDS011;7231;59.370;18.016;2023-07-20T04:14:17;4.25;;;1.52;;
14294;SDS011;7231;59.370;18.016;2023-07-20T04:16:46;6.22;;;1.92;;
14294;SDS011;7231;59.370;18.016;2023-07-20T04:19:14;5.97;;;1.70;;
14294;SDS011;7231;59.370;18.016;2023-07-20T04:21:42;6.68;;;1.98;;
14294;SDS011;7231;59.370;18.016;2023-07-20T04:24:10;3.88;;;2.08;;
14294;SDS011;7231;59.370;18.016;2023-07-20T04:26:39;2.97;;;1.15;;
14294;SDS011;7231;59.370;18.016;2023-07-20T04:29:07;5.45;;;2.40;;
14294;SDS011;7231;59.370;18.016;2023-07-20T04:31:35;4.50;;;1.80;;
14294;SDS011;7231;59.370;18.016;2023-07-20T04:34:03;4.03;;;1.65;;
14294;SDS011;7231;59.370;18.016;2023-07-20T04:36:33;6.35;;;1.65;;
14294;SDS011;7231;59.370;18.016;2023-07-20T04:39:01;7.32;;;1.92;;
14294;SDS011;7231;59.370;18.016;2023-07-20T04:41:28;6.10;;;1.60;;
14294;SDS011;7231;59.370;18.016;2023-07-20T04:44:00;5.82;;;1.70;;
14294;SDS011;7231;59.370;18.016;2023-07-20T04:46:28;6.72;;;1.70;;
14294;SDS011;7231;59.370;18.016;2023-07-20T04:48:56;4.90;;;1.73;;
14294;SDS011;7231;59.370;18.016;2023-07-20T04:51:24;5.75;;;1.80;;
14294;SDS011;7231;59.370;18.016;2023-07-20T04:53:52;8.23;;;1.75;;
14294;SDS011;7231;59.370;18.016;2023-07-20T04:56:20;10.65;;;1.67;;
14294;SDS011;7231;59.370;18.016;2023-07-20T04:58:50;5.85;;;1.88;;
14294;SDS011;7231;59.370;18.016;2023-07-20T05:01:19;7.03;;;1.98;;
14294;SDS011;7231;59.370;18.016;2023-07-20T05:03:47;6.68;;;2.00;;
14294;SDS011;7231;59.370;18.016;2023-07-20T05:06:17;7.03;;;1.83;;
14294;SDS011;7231;59.370;18.016;2023-07-20T05:08:45;6.60;;;1.95;;
14294;SDS011;7231;59.370;18.016;2023-07-20T05:11:13;7.55;;;2.05;;
14294;SDS011;7231;59.370;18.016;2023-07-20T05:13:41;3.88;;;1.45;;
14294;SDS011;7231;59.370;18.016;2023-07-20T05:16:09;5.68;;;2.03;;
14294;SDS011;7231;59.370;18.016;2023-07-20T05:18:38;11.10;;;2.40;;
14294;SDS011;7231;59.370;18.016;2023-07-20T05:21:06;9.13;;;2.00;;
14294;SDS011;7231;59.370;18.016;2023-07-20T05:23:35;8.05;;;1.88;;
14294;SDS011;7231;59.370;18.016;2023-07-20T05:26:02;4.80;;;1.90;;
14294;SDS011;7231;59.370;18.016;2023-07-20T05:28:31;5.45;;;2.20;;
14294;SDS011;7231;59.370;18.016;2023-07-20T05:30:59;7.53;;;2.60;;
14294;SDS011;7231;59.370;18.016;2023-07-20T05:33:30;8.63;;;2.33;;
14294;SDS011;7231;59.370;18.016;2023-07-20T05:35:59;7.70;;;1.85;;
14294;SDS011;7231;59.370;18.016;2023-07-20T05:38:27;6.25;;;1.90;;
14294;SDS011;7231;59.370;18.016;2023-07-20T05:40:58;6.93;;;2.15;;
14294;SDS011;7231;59.370;18.016;2023-07-20T05:43:27;5.63;;;2.00;;
14294;SDS011;7231;59.370;18.016;2023-07-20T05:45:55;6.85;;;2.78;;
14294;SDS011;7231;59.370;18.016;2023-07-20T05:48:23;6.20;;;1.98;;
14294;SDS011;7231;59.370;18.016;2023-07-20T05:50:51;6.53;;;2.05;;
14294;SDS011;7231;59.370;18.016;2023-07-20T05:53:21;4.40;;;2.20;;
14294;SDS011;7231;59.370;18.016;2023-07-20T05:55:52;8.15;;;2.15;;
14294;SDS011;7231;59.370;18.016;2023-07-20T05:58:21;4.55;;;2.00;;
14294;SDS011;7231;59.370;18.016;2023-07-20T06:00:49;6.10;;;2.08;;
14294;SDS011;7231;59.370;18.016;2023-07-20T06:03:18;7.05;;;2.05;;
14294;SDS011;7231;59.370;18.016;2023-07-20T06:05:48;3.70;;;2.00;;
14294;SDS011;7231;59.370;18.016;2023-07-20T06:08:16;9.93;;;2.35;;
14294;SDS011;7231;59.370;18.016;2023-07-20T06:10:49;9.13;;;2.00;;
14294;SDS011;7231;59.370;18.016;2023-07-20T06:13:18;6.68;;;2.65;;
14294;SDS011;7231;59.370;18.016;2023-07-20T06:15:46;6.70;;;1.77;;
14294;SDS011;7231;59.370;18.016;2023-07-20T06:18:14;5.10;;;1.77;;
14294;SDS011;7231;59.370;18.016;2023-07-20T06:20:44;5.78;;;2.10;;
14294;SDS011;7231;59.370;18.016;2023-07-20T06:23:16;7.30;;;1.65;;
14294;SDS011;7231;59.370;18.016;2023-07-20T06:25:45;7.63;;;2.53;;
14294;SDS011;7231;59.370;18.016;2023-07-20T06:28:13;6.70;;;2.15;;
14294;SDS011;7231;59.370;18.016;2023-07-20T06:30:41;5.72;;;1.92;;
14294;SDS011;7231;59.370;18.016;2023-07-20T06:33:10;7.00;;;2.67;;
14294;SDS011;7231;59.370;18.016;2023-07-20T06:35:40;5.45;;;2.17;;
14294;SDS011;7231;59.370;18.016;2023-07-20T06:38:09;7.72;;;2.53;;
14294;SDS011;7231;59.370;18.016;2023-07-20T06:40:40;7.35;;;2.40;;
14294;SDS011;7231;59.370;18.016;2023-07-20T06:43:09;4.28;;;2.05;;
14294;SDS011;7231;59.370;18.016;2023-07-20T06:45:40;7.40;;;2.20;;
14294;SDS011;7231;59.370;18.016;2023-07-20T06:48:09;5.57;;;1.90;;
14294;SDS011;7231;59.370;18.016;2023-07-20T06:50:37;6.85;;;2.17;;
14294;SDS011;7231;59.370;18.016;2023-07-20T06:53:05;6.70;;;2.22;;
14294;SDS011;7231;59.370;18.016;2023-07-20T06:55:33;7.47;;;2.35;;
14294;SDS011;7231;59.370;18.016;2023-07-20T06:58:07;6.78;;;2.53;;
14294;SDS011;7231;59.370;18.016;2023-07-20T07:00:37;7.88;;;2.40;;
14294;SDS011;7231;59.370;18.016;2023-07-20T07:03:05;7.45;;;2.63;;
14294;SDS011;7231;59.370;18.016;2023-07-20T07:05:35;4.28;;;2.00;;
14294;SDS011;7231;59.370;18.016;2023-07-20T07:08:05;8.05;;;2.45;;
14294;SDS011;7231;59.370;18.016;2023-07-20T07:10:35;5.10;;;2.20;;
14294;SDS011;7231;59.370;18.016;2023-07-20T07:13:04;8.82;;;2.30;;
14294;SDS011;7231;59.370;18.016;2023-07-20T07:15:32;7.70;;;2.08;;
14294;SDS011;7231;59.370;18.016;2023-07-20T07:18:01;5.57;;;1.85;;
14294;SDS011;7231;59.370;18.016;2023-07-20T07:20:30;6.45;;;1.70;;
14294;SDS011;7231;59.370;18.016;2023-07-20T07:22:58;5.88;;;2.20;;
14294;SDS011;7231;59.370;18.016;2023-07-20T07:25:27;5.07;;;2.03;;
14294;SDS011;7231;59.370;18.016;2023-07-20T07:27:54;5.07;;;2.00;;
14294;SDS011;7231;59.370;18.016;2023-07-20T07:30:23;7.57;;;2.10;;
14294;SDS011;7231;59.370;18.016;2023-07-20T07:32:51;6.78;;;1.92;;
14294;SDS011;7231;59.370;18.016;2023-07-20T07:35:21;6.70;;;2.10;;
14294;SDS011;7231;59.370;18.016;2023-07-20T07:37:49;5.32;;;1.88;;
14294;SDS011;7231;59.370;18.016;2023-07-20T07:40:35;4.90;;;2.10;;
14294;SDS011;7231;59.370;18.016;2023-07-20T07:43:03;5.88;;;2.20;;
14294;SDS011;7231;59.370;18.016;2023-07-20T07:45:33;4.93;;;1.95;;
14294;SDS011;7231;59.370;18.016;2023-07-20T07:48:03;8.27;;;2.03;;
14294;SDS011;7231;59.370;18.016;2023-07-20T07:50:33;5.82;;;1.70;;
14294;SDS011;7231;59.370;18.016;2023-07-20T07:53:01;5.75;;;2.08;;
14294;SDS011;7231;59.370;18.016;2023-07-20T07:55:29;4.07;;;1.52;;
14294;SDS011;7231;59.370;18.016;2023-07-20T07:57:57;4.22;;;1.52;;
14294;SDS011;7231;59.370;18.016;2023-07-20T08:00:25;2.83;;;1.58;;
14294;SDS011;7231;59.370;18.016;2023-07-20T08:02:53;4.45;;;1.83;;
14294;SDS011;7231;59.370;18.016;2023-07-20T08:05:22;5.82;;;1.75;;
14294;SDS011;7231;59.370;18.016;2023-07-20T08:07:51;2.83;;;1.30;;
14294;SDS011;7231;59.370;18.016;2023-07-20T08:10:19;3.50;;;1.58;;
14294;SDS011;7231;59.370;18.016;2023-07-20T08:12:47;4.88;;;1.67;;
14294;SDS011;7231;59.370;18.016;2023-07-20T08:15:15;5.32;;;1.83;;
14294;SDS011;7231;59.370;18.016;2023-07-20T08:17:43;3.65;;;1.60;;
14294;SDS011;7231;59.370;18.016;2023-07-20T08:20:13;3.53;;;1.33;;
14294;SDS011;7231;59.370;18.016;2023-07-20T08:22:43;4.93;;;1.70;;
14294;SDS011;7231;59.370;18.016;2023-07-20T08:25:15;3.17;;;2.13;;
14294;SDS011;7231;59.370;18.016;2023-07-20T08:27:43;4.38;;;2.42;;
14294;SDS011;7231;59.370;18.016;2023-07-20T08:30:12;3.33;;;1.42;;
14294;SDS011;7231;59.370;18.016;2023-07-20T08:32:40;4.45;;;2.25;;
14294;SDS011;7231;59.370;18.016;2023-07-20T08:35:09;2.88;;;1.95;;
14294;SDS011;7231;59.370;18.016;2023-07-20T08:37:37;3.22;;;1.60;;
14294;SDS011;7231;59.370;18.016;2023-07-20T08:40:06;4.38;;;1.42;;
14294;SDS011;7231;59.370;18.016;2023-07-20T08:42:37;1.95;;;1.02;;
14294;SDS011;7231;59.370;18.016;2023-07-20T08:45:06;3.50;;;1.30;;
14294;SDS011;7231;59.370;18.016;2023-07-20T08:47:37;3.35;;;1.20;;
14294;SDS011;7231;59.370;18.016;2023-07-20T08:50:06;5.05;;;1.48;;
14294;SDS011;7231;59.370;18.016;2023-07-20T08:52:36;3.53;;;1.40;;
14294;SDS011;7231;59.370;18.016;2023-07-20T08:55:04;3.15;;;1.23;;
14294;SDS011;7231;59.370;18.016;2023-07-20T08:57:33;4.63;;;1.48;;
14294;SDS011;7231;59.370;18.016;2023-07-20T09:00:03;3.20;;;1.25;;
14294;SDS011;7231;59.370;18.016;2023-07-20T09:02:36;2.65;;;1.20;;
14294;SDS011;7231;59.370;18.016;2023-07-20T09:05:07;3.78;;;1.55;;
14294;SDS011;7231;59.370;18.016;2023-07-20T09:07:38;2.15;;;1.20;;
14294;SDS011;7231;59.370;18.016;2023-07-20T09:10:07;4.63;;;1.80;;
14294;SDS011;7231;59.370;18.016;2023-07-20T09:12:37;3.75;;;1.38;;
14294;SDS011;7231;59.370;18.016;2023-07-20T09:15:09;4.80;;;1.40;;
14294;SDS011;7231;59.370;18.016;2023-07-20T09:17:38;3.30;;;1.33;;
14294;SDS011;7231;59.370;18.016;2023-07-20T09:20:07;2.28;;;1.48;;
14294;SDS011;7231;59.370;18.016;2023-07-20T09:22:37;2.72;;;1.20;;
14294;SDS011;7231;59.370;18.016;2023-07-20T09:25:07;2.55;;;1.40;;
14294;SDS011;7231;59.370;18.016;2023-07-20T09:27:39;2.28;;;1.35;;
14294;SDS011;7231;59.370;18.016;2023-07-20T09:30:13;3.80;;;1.20;;
14294;SDS011;7231;59.370;18.016;2023-07-20T09:32:45;4.35;;;1.60;;
14294;SDS011;7231;59.370;18.016;2023-07-20T09:35:17;2.30;;;1.27;;
14294;SDS011;7231;59.370;18.016;2023-07-20T09:37:50;2.97;;;1.20;;
14294;SDS011;7231;59.370;18.016;2023-07-20T09:40:39;2.30;;;1.00;;
14294;SDS011;7231;59.370;18.016;2023-07-20T09:43:10;2.63;;;1.50;;
14294;SDS011;7231;59.370;18.016;2023-07-20T09:45:43;2.83;;;1.20;;
14294;SDS011;7231;59.370;18.016;2023-07-20T09:48:15;2.97;;;1.35;;
14294;SDS011;7231;59.370;18.016;2023-07-20T09:50:48;2.47;;;1.35;;
14294;SDS011;7231;59.370;18.016;2023-07-20T09:53:17;4.07;;;1.48;;
14294;SDS011;7231;59.370;18.016;2023-07-20T09:55:47;3.10;;;1.55;;
14294;SDS011;7231;59.370;18.016;2023-07-20T09:58:15;3.42;;;1.50;;
14294;SDS011;7231;59.370;18.016;2023-07-20T10:00:46;1.70;;;1.38;;
14294;SDS011;7231;59.370;18.016;2023-07-20T10:03:22;2.38;;;1.55;;
14294;SDS011;7231;59.370;18.016;2023-07-20T10:06:00;2.70;;;1.27;;
14294;SDS011;7231;59.370;18.016;2023-07-20T10:08:34;3.30;;;1.23;;
14294;SDS011;7231;59.370;18.016;2023-07-20T10:11:09;1.70;;;1.20;;
14294;SDS011;7231;59.370;18.016;2023-07-20T10:13:39;2.90;;;1.27;;
14294;SDS011;7231;59.370;18.016;2023-07-20T10:16:14;3.30;;;1.20;;
14294;SDS011;7231;59.370;18.016;2023-07-20T10:18:46;1.67;;;1.08;;
14294;SDS011;7231;59.370;18.016;2023-07-20T10:21:17;3.33;;;1.33;;
14294;SDS011;7231;59.370;18.016;2023-07-20T10:23:52;3.20;;;1.00;;
14294;SDS011;7231;59.370;18.016;2023-07-20T10:26:24;2.65;;;1.20;;
14294;SDS011;7231;59.370;18.016;2023-07-20T10:28:53;1.77;;;1.02;;
14294;SDS011;7231;59.370;18.016;2023-07-20T10:31:24;0.82;;;0.70;;
14294;SDS011;7231;59.370;18.016;2023-07-20T10:33:56;3.58;;;1.15;;
14294;SDS011;7231;59.370;18.016;2023-07-20T10:36:25;2.35;;;0.90;;
14294;SDS011;7231;59.370;18.016;2023-07-20T10:38:57;3.17;;;1.05;;
14294;SDS011;7231;59.370;18.016;2023-07-20T10:41:28;2.45;;;0.90;;
14294;SDS011;7231;59.370;18.016;2023-07-20T10:44:00;0.80;;;0.60;;
14294;SDS011;7231;59.370;18.016;2023-07-20T10:46:36;1.13;;;0.60;;
14294;SDS011;7231;59.370;18.016;2023-07-20T10:49:10;0.65;;;0.60;;
14294;SDS011;7231;59.370;18.016;2023-07-20T10:51:42;1.67;;;0.68;;
14294;SDS011;7231;59.370;18.016;2023-07-20T10:57:23;1.38;;;0.82;;
14294;SDS011;7231;59.370;18.016;2023-07-20T11:00:08;1.52;;;0.82;;
14294;SDS011;7231;59.370;18.016;2023-07-20T11:02:46;1.65;;;0.88;;
14294;SDS011;7231;59.370;18.016;2023-07-20T11:05:31;4.22;;;1.30;;
14294;SDS011;7231;59.370;18.016;2023-07-20T11:08:04;2.63;;;0.90;;
14294;SDS011;7231;59.370;18.016;2023-07-20T11:10:33;2.47;;;1.08;;
14294;SDS011;7231;59.370;18.016;2023-07-20T11:13:19;1.58;;;1.15;;
14294;SDS011;7231;59.370;18.016;2023-07-20T11:16:01;3.85;;;1.55;;
14294;SDS011;7231;59.370;18.016;2023-07-20T11:18:34;3.13;;;1.08;;
14294;SDS011;7231;59.370;18.016;2023-07-20T11:21:07;2.97;;;1.30;;
14294;SDS011;7231;59.370;18.016;2023-07-20T11:23:37;3.67;;;1.30;;
14294;SDS011;7231;59.370;18.016;2023-07-20T11:26:06;2.33;;;1.20;;
14294;SDS011;7231;59.370;18.016;2023-07-20T11:28:35;2.30;;;0.98;;
14294;SDS011;7231;59.370;18.016;2023-07-20T11:31:03;2.30;;;1.20;;
14294;SDS011;7231;59.370;18.016;2023-07-20T11:33:32;2.05;;;1.00;;
14294;SDS011;7231;59.370;18.016;2023-07-20T11:36:01;2.65;;;1.33;;
14294;SDS011;7231;59.370;18.016;2023-07-20T11:38:49;1.63;;;0.80;;
14294;SDS011;7231;59.370;18.016;2023-07-20T11:41:17;2.80;;;0.90;;
14294;SDS011;7231;59.370;18.016;2023-07-20T11:43:47;1.30;;;0.80;;
14294;SDS011;7231;59.370;18.016;2023-07-20T11:46:15;1.73;;;0.90;;
14294;SDS011;7231;59.370;18.016;2023-07-20T11:48:45;2.13;;;0.90;;
14294;SDS011;7231;59.370;18.016;2023-07-20T11:51:13;2.10;;;1.00;;
14294;SDS011;7231;59.370;18.016;2023-07-20T11:53:42;1.25;;;0.98;;
14294;SDS011;7231;59.370;18.016;2023-07-20T11:56:12;1.92;;;0.80;;
14294;SDS011;7231;59.370;18.016;2023-07-20T11:58:43;4.40;;;1.40;;
14294;SDS011;7231;59.370;18.016;2023-07-20T12:01:12;0.70;;;0.70;;
14294;SDS011;7231;59.370;18.016;2023-07-20T12:03:41;1.75;;;0.90;;
14294;SDS011;7231;59.370;18.016;2023-07-20T12:06:13;2.33;;;1.10;;
14294;SDS011;7231;59.370;18.016;2023-07-20T12:08:42;1.25;;;0.70;;
14294;SDS011;7231;59.370;18.016;2023-07-20T12:11:11;2.17;;;0.90;;
14294;SDS011;7231;59.370;18.016;2023-07-20T12:13:40;1.38;;;0.90;;
14294;SDS011;7231;59.370;18.016;2023-07-20T12:16:11;1.77;;;0.80;;
14294;SDS011;7231;59.370;18.016;2023-07-20T12:18:41;2.35;;;0.90;;
14294;SDS011;7231;59.370;18.016;2023-07-20T12:21:12;1.90;;;0.85;;
14294;SDS011;7231;59.370;18.016;2023-07-20T12:23:40;1.25;;;0.80;;
14294;SDS011;7231;59.370;18.016;2023-07-20T12:26:10;1.80;;;1.00;;
14294;SDS011;7231;59.370;18.016;2023-07-20T12:28:38;1.38;;;0.80;;
14294;SDS011;7231;59.370;18.016;2023-07-20T12:31:08;1.27;;;0.90;;
14294;SDS011;7231;59.370;18.016;2023-07-20T12:33:37;2.05;;;1.00;;
14294;SDS011;7231;59.370;18.016;2023-07-20T12:36:06;1.80;;;1.00;;
14294;SDS011;7231;59.370;18.016;2023-07-20T12:38:36;1.23;;;1.00;;
14294;SDS011;7231;59.370;18.016;2023-07-20T12:41:04;1.48;;;0.90;;
14294;SDS011;7231;59.370;18.016;2023-07-20T12:43:32;1.45;;;1.00;;
14294;SDS011;7231;59.370;18.016;2023-07-20T12:46:01;2.25;;;0.80;;
14294;SDS011;7231;59.370;18.016;2023-07-20T12:48:29;3.00;;;1.05;;
14294;SDS011;7231;59.370;18.016;2023-07-20T12:50:57;3.38;;;1.20;;
14294;SDS011;7231;59.370;18.016;2023-07-20T12:53:25;1.20;;;0.70;;
14294;SDS011;7231;59.370;18.016;2023-07-20T12:55:55;1.17;;;0.90;;
14294;SDS011;7231;59.370;18.016;2023-07-20T12:58:23;2.78;;;1.00;;
14294;SDS011;7231;59.370;18.016;2023-07-20T13:00:51;1.27;;;0.90;;
14294;SDS011;7231;59.370;18.016;2023-07-20T13:03:19;1.98;;;0.80;;
14294;SDS011;7231;59.370;18.016;2023-07-20T13:05:50;1.98;;;1.20;;
14294;SDS011;7231;59.370;18.016;2023-07-20T13:08:22;1.33;;;0.75;;
14294;SDS011;7231;59.370;18.016;2023-07-20T13:10:52;1.23;;;0.77;;
14294;SDS011;7231;59.370;18.016;2023-07-20T13:13:22;1.67;;;0.75;;
14294;SDS011;7231;59.370;18.016;2023-07-20T13:15:49;1.23;;;0.70;;
14294;SDS011;7231;59.370;18.016;2023-07-20T13:18:18;1.63;;;1.00;;
14294;SDS011;7231;59.370;18.016;2023-07-20T13:20:46;1.35;;;1.05;;
14294;SDS011;7231;59.370;18.016;2023-07-20T13:23:14;2.25;;;0.95;;
14294;SDS011;7231;59.370;18.016;2023-07-20T13:25:42;1.70;;;1.00;;
14294;SDS011;7231;59.370;18.016;2023-07-20T13:28:11;1.45;;;0.85;;
14294;SDS011;7231;59.370;18.016;2023-07-20T13:30:40;2.17;;;1.27;;
14294;SDS011;7231;59.370;18.016;2023-07-20T13:33:09;1.90;;;1.02;;
14294;SDS011;7231;59.370;18.016;2023-07-20T13:35:43;3.70;;;1.10;;
14294;SDS011;7231;59.370;18.016;2023-07-20T13:38:15;1.35;;;0.88;;
14294;SDS011;7231;59.370;18.016;2023-07-20T13:40:43;1.95;;;0.88;;
14294;SDS011;7231;59.370;18.016;2023-07-20T13:43:12;1.20;;;0.95;;
14294;SDS011;7231;59.370;18.016;2023-07-20T13:45:41;2.58;;;1.10;;
14294;SDS011;7231;59.370;18.016;2023-07-20T13:48:09;2.35;;;0.93;;
14294;SDS011;7231;59.370;18.016;2023-07-20T13:50:43;1.52;;;0.90;;
14294;SDS011;7231;59.370;18.016;2023-07-20T13:53:26;1.63;;;0.90;;
14294;SDS011;7231;59.370;18.016;2023-07-20T13:55:58;1.05;;;0.80;;
14294;SDS011;7231;59.370;18.016;2023-07-20T13:58:30;1.17;;;0.85;;
14294;SDS011;7231;59.370;18.016;2023-07-20T14:00:59;1.02;;;0.75;;
14294;SDS011;7231;59.370;18.016;2023-07-20T14:03:27;5.57;;;1.00;;
14294;SDS011;7231;59.370;18.016;2023-07-20T14:05:56;3.15;;;1.00;;
14294;SDS011;7231;59.370;18.016;2023-07-20T14:08:27;0.77;;;0.75;;
14294;SDS011;7231;59.370;18.016;2023-07-20T14:10:56;1.50;;;0.90;;
14294;SDS011;7231;59.370;18.016;2023-07-20T14:13:28;1.60;;;0.88;;
14294;SDS011;7231;59.370;18.016;2023-07-20T14:16:13;1.48;;;0.80;;
14294;SDS011;7231;59.370;18.016;2023-07-20T14:18:42;1.38;;;0.98;;
14294;SDS011;7231;59.370;18.016;2023-07-20T14:21:15;1.73;;;0.98;;
14294;SDS011;7231;59.370;18.016;2023-07-20T14:23:45;0.95;;;0.85;;
14294;SDS011;7231;59.370;18.016;2023-07-20T14:26:13;1.23;;;0.90;;
14294;SDS011;7231;59.370;18.016;2023-07-20T14:28:42;1.05;;;0.95;;
14294;SDS011;7231;59.370;18.016;2023-07-20T14:31:10;1.50;;;0.98;;
14294;SDS011;7231;59.370;18.016;2023-07-20T14:33:40;2.10;;;0.93;;
14294;SDS011;7231;59.370;18.016;2023-07-20T14:36:08;1.42;;;0.93;;
14294;SDS011;7231;59.370;18.016;2023-07-20T14:38:37;1.52;;;0.80;;
14294;SDS011;7231;59.370;18.016;2023-07-20T14:41:06;2.13;;;1.00;;
14294;SDS011;7231;59.370;18.016;2023-07-20T14:43:34;4.60;;;0.90;;
14294;SDS011;7231;59.370;18.016;2023-07-20T14:46:02;1.90;;;1.05;;
14294;SDS011;7231;59.370;18.016;2023-07-20T14:48:30;1.80;;;0.93;;
14294;SDS011;7231;59.370;18.016;2023-07-20T14:51:00;1.52;;;1.00;;
14294;SDS011;7231;59.370;18.016;2023-07-20T14:53:31;2.40;;;1.00;;
14294;SDS011;7231;59.370;18.016;2023-07-20T14:56:02;1.10;;;0.95;;
14294;SDS011;7231;59.370;18.016;2023-07-20T14:58:34;3.72;;;1.10;;
14294;SDS011;7231;59.370;18.016;2023-07-20T15:01:02;1.38;;;0.90;;
14294;SDS011;7231;59.370;18.016;2023-07-20T15:03:30;1.58;;;1.00;;
14294;SDS011;7231;59.370;18.016;2023-07-20T15:06:00;1.02;;;0.85;;
14294;SDS011;7231;59.370;18.016;2023-07-20T15:08:29;1.00;;;0.70;;